Time;durP1;ratioP1;P1;durP2;ratioP2;P2;SDS_P1;SDS_P2;PMS_P1;PMS_P2;Temp;Humidity;BMP_temperature;BMP_pressure;BME280_temperature;BME280_humidity;BME280_pressure;Samples;Min_cycle;Max_cycle;Signal;HPM_P1;HPM_P2
2021/11/27 00:01:56;;;;;;;9.73;4.63;;;;;;;-145.18;100.00;60484.78;5053890;28;20278;-74
2021/11/27 00:04:22;;;;;;;13.27;5.03;;;;;;;-145.18;100.00;60484.78;5048422;28;20056;-74
2021/11/27 00:06:47;;;;;;;13.13;5.87;;;;;;;-145.18;100.00;60484.78;5051132;28;20548;-74
2021/11/27 00:09:13;;;;;;;10.43;4.77;;;;;;;-145.18;100.00;60484.78;5052866;28;20044;-74
2021/11/27 00:11:39;;;;;;;9.33;3.80;;;;;;;-145.18;100.00;60484.78;5051829;28;20462;-73
2021/11/27 00:14:06;;;;;;;9.03;4.43;;;;;;;-145.18;100.00;60484.78;5051695;28;20028;-74
2021/11/27 00:16:33;;;;;;;9.37;4.20;;;;;;;-145.18;100.00;60484.78;5058584;28;20370;-74
2021/11/27 00:18:59;;;;;;;9.37;4.60;;;;;;;-145.18;100.00;60484.78;5047006;28;20836;-74
2021/11/27 00:21:25;;;;;;;8.83;4.00;;;;;;;-145.18;100.00;60484.78;5047720;28;20283;-74
2021/11/27 00:23:53;;;;;;;10.10;3.93;;;;;;;-145.18;100.00;60484.78;5051847;28;20127;-73
2021/11/27 00:26:19;;;;;;;9.50;4.03;;;;;;;-145.18;100.00;60484.78;5045849;28;20267;-74
2021/11/27 00:28:46;;;;;;;10.73;4.33;;;;;;;-145.18;100.00;60484.78;5045584;28;20567;-74
2021/11/27 00:31:19;;;;;;;8.60;4.30;;;;;;;-145.18;100.00;60484.78;5055937;28;20816;-74
2021/11/27 00:33:45;;;;;;;10.60;5.23;;;;;;;-145.18;100.00;60484.78;5048036;28;20345;-74
2021/11/27 00:36:12;;;;;;;8.17;4.10;;;;;;;-145.18;100.00;60484.78;5049210;28;20295;-75
2021/11/27 00:38:37;;;;;;;12.50;4.40;;;;;;;-145.18;100.00;60484.78;5046918;28;20270;-75
2021/11/27 00:41:04;;;;;;;8.60;3.90;;;;;;;-145.18;100.00;60484.78;5057214;28;20674;-74
2021/11/27 00:43:30;;;;;;;9.33;4.60;;;;;;;-145.18;100.00;60484.78;5056484;28;20508;-74
2021/11/27 00:45:56;;;;;;;9.70;4.27;;;;;;;-145.18;100.00;60484.78;5051100;28;20275;-74
2021/11/27 00:48:22;;;;;;;11.10;5.07;;;;;;;-145.18;100.00;60484.78;5052800;28;20028;-75
2021/11/27 00:50:52;;;;;;;9.40;4.47;;;;;;;-145.18;100.00;60484.78;5050221;28;20048;-74
2021/11/27 00:53:19;;;;;;;8.83;4.57;;;;;;;-145.18;100.00;60484.78;5045212;28;20543;-74
2021/11/27 00:55:45;;;;;;;9.40;4.73;;;;;;;-145.18;100.00;60484.78;5050379;28;21565;-74
2021/11/27 00:58:11;;;;;;;10.87;5.10;;;;;;;-145.18;100.00;60484.78;5050496;28;20636;-74
2021/11/27 01:00:43;;;;;;;8.50;4.80;;;;;;;-145.18;100.00;60484.78;5051532;28;20285;-74
2021/11/27 01:03:11;;;;;;;11.40;4.90;;;;;;;-145.18;100.00;60484.78;5053917;28;20342;-74
2021/11/27 01:05:38;;;;;;;8.83;4.63;;;;;;;-145.18;100.00;60484.78;5048034;28;20208;-74
2021/11/27 01:08:04;;;;;;;12.27;5.40;;;;;;;-145.18;100.00;60484.78;5052587;28;20287;-74
2021/11/27 01:10:36;;;;;;;9.57;4.27;;;;;;;-145.18;100.00;60484.78;5046471;28;20623;-74
2021/11/27 01:13:02;;;;;;;10.95;4.97;;;;;;;-145.18;100.00;60484.78;5043634;28;20270;-74
2021/11/27 01:15:30;;;;;;;12.10;4.60;;;;;;;-145.18;100.00;60484.78;5052913;28;20150;-74
2021/11/27 01:17:57;;;;;;;12.53;5.23;;;;;;;-145.18;100.00;60484.78;5050564;28;20271;-74
2021/11/27 01:20:28;;;;;;;11.60;5.23;;;;;;;-145.18;100.00;60484.78;5051173;28;20282;-74
2021/11/27 01:22:55;;;;;;;12.80;5.13;;;;;;;-145.18;100.00;60484.78;5048156;28;20333;-74
2021/11/27 01:25:21;;;;;;;10.50;4.87;;;;;;;-145.18;100.00;60484.78;5053464;28;20347;-74
2021/11/27 01:27:47;;;;;;;14.93;5.30;;;;;;;-145.18;100.00;60484.78;5050200;28;20788;-74
2021/11/27 01:30:16;;;;;;;12.87;6.37;;;;;;;-145.18;100.00;60484.78;5050863;28;20272;-74
2021/11/27 01:32:42;;;;;;;10.43;5.53;;;;;;;-145.18;100.00;60484.78;5053726;28;20020;-75
2021/11/27 01:35:08;;;;;;;10.67;4.53;;;;;;;-145.18;100.00;60484.78;5045703;28;20684;-74
2021/11/27 01:37:34;;;;;;;12.77;5.73;;;;;;;-145.18;100.00;60484.78;5046408;28;20079;-74
2021/11/27 01:40:01;;;;;;;13.43;5.63;;;;;;;-145.18;100.00;60484.78;5054259;28;20271;-74
2021/11/27 01:42:27;;;;;;;10.33;4.80;;;;;;;-145.18;100.00;60484.78;5055260;28;20047;-74
2021/11/27 01:44:52;;;;;;;11.97;5.90;;;;;;;-145.18;100.00;60484.78;5046522;28;20840;-74
2021/11/27 01:47:18;;;;;;;12.43;5.70;;;;;;;-145.18;100.00;60484.78;5052501;28;20046;-74
2021/11/27 01:49:43;;;;;;;15.27;5.60;;;;;;;-145.18;100.00;60484.78;5046728;28;20432;-74
2021/11/27 01:52:09;;;;;;;11.43;5.20;;;;;;;-145.18;100.00;60484.78;5055368;28;20037;-74
2021/11/27 01:54:35;;;;;;;12.43;5.80;;;;;;;-145.18;100.00;60484.78;5047321;28;20032;-74
2021/11/27 01:57:05;;;;;;;11.40;5.57;;;;;;;-145.18;100.00;60484.78;5047957;28;20284;-74
2021/11/27 01:59:33;;;;;;;10.13;5.10;;;;;;;-145.18;100.00;60484.78;5053385;28;20386;-74
2021/11/27 02:01:59;;;;;;;11.10;5.87;;;;;;;-145.18;100.00;60484.78;5047402;28;20327;-73
2021/11/27 02:04:27;;;;;;;16.33;7.23;;;;;;;-145.18;100.00;60484.78;5048902;28;20486;-74
2021/11/27 02:06:52;;;;;;;10.93;4.87;;;;;;;-145.18;100.00;60484.78;5053558;28;20248;-74
2021/11/27 02:09:22;;;;;;;11.23;5.33;;;;;;;-145.18;100.00;60484.78;5051359;28;20777;-73
2021/11/27 02:11:49;;;;;;;10.53;4.93;;;;;;;-145.18;100.00;60484.78;5052944;28;20064;-73
2021/11/27 02:14:15;;;;;;;14.53;5.53;;;;;;;-145.18;100.00;60484.78;5053197;28;20281;-73
2021/11/27 02:16:41;;;;;;;14.40;5.73;;;;;;;-145.18;100.00;60484.78;5051464;28;20275;-75
2021/11/27 02:19:08;;;;;;;11.93;5.37;;;;;;;-145.18;100.00;60484.78;5050010;28;20025;-73
2021/11/27 02:21:33;;;;;;;13.03;6.07;;;;;;;-145.18;100.00;60484.78;5059339;28;20324;-74
2021/11/27 02:24:00;;;;;;;11.53;5.53;;;;;;;-145.18;100.00;60484.78;5052351;28;20782;-74
2021/11/27 02:26:30;;;;;;;11.17;5.30;;;;;;;-145.18;100.00;60484.78;5048893;28;20078;-73
2021/11/27 02:29:01;;;;;;;12.23;5.67;;;;;;;-145.18;100.00;60484.78;5057483;28;20271;-73
2021/11/27 02:31:27;;;;;;;11.70;5.17;;;;;;;-145.18;100.00;60484.78;5049694;28;20271;-73
2021/11/27 02:33:55;;;;;;;12.33;5.30;;;;;;;-145.18;100.00;60484.78;5048596;28;20275;-73
2021/11/27 02:36:22;;;;;;;11.23;5.00;;;;;;;-145.18;100.00;60484.78;5053114;28;20286;-73
2021/11/27 02:38:47;;;;;;;11.23;5.53;;;;;;;-145.18;100.00;60484.78;5043977;28;20274;-73
2021/11/27 02:41:13;;;;;;;12.20;5.80;;;;;;;-145.18;100.00;60484.78;5057969;28;20278;-73
2021/11/27 02:43:39;;;;;;;12.60;5.67;;;;;;;-145.18;100.00;60484.78;5047275;28;20073;-73
2021/11/27 02:46:04;;;;;;;10.20;4.80;;;;;;;-145.18;100.00;60484.78;5051269;28;20386;-73
2021/11/27 02:48:30;;;;;;;11.37;5.60;;;;;;;-145.18;100.00;60484.78;5054789;28;20023;-73
2021/11/27 02:50:55;;;;;;;12.10;4.90;;;;;;;-145.18;100.00;60484.78;5051723;28;20031;-73
2021/11/27 02:53:21;;;;;;;10.77;5.03;;;;;;;-145.18;100.00;60484.78;5057009;28;20592;-73
2021/11/27 02:55:47;;;;;;;11.60;5.17;;;;;;;-145.18;100.00;60484.78;5056950;28;20116;-73
2021/11/27 02:58:13;;;;;;;10.63;4.70;;;;;;;-145.18;100.00;60484.78;5058612;28;20111;-73
2021/11/27 03:00:39;;;;;;;10.43;4.77;;;;;;;-145.18;100.00;60484.78;5052002;28;20389;-73
2021/11/27 03:03:05;;;;;;;10.43;4.53;;;;;;;-145.18;100.00;60484.78;5050270;28;20385;-73
2021/11/27 03:05:30;;;;;;;13.87;5.83;;;;;;;-145.18;100.00;60484.78;5057707;28;20577;-73
2021/11/27 03:07:56;;;;;;;10.17;4.90;;;;;;;-145.18;100.00;60484.78;5055922;28;20020;-74
2021/11/27 03:10:22;;;;;;;13.30;5.70;;;;;;;-145.18;100.00;60484.78;5049730;28;20025;-73
2021/11/27 03:12:49;;;;;;;12.00;5.30;;;;;;;-145.18;100.00;60484.78;5049100;28;20039;-73
2021/11/27 03:15:16;;;;;;;10.10;4.67;;;;;;;-145.18;100.00;60484.78;5057632;28;20040;-73
2021/11/27 03:17:42;;;;;;;11.93;5.33;;;;;;;-145.18;100.00;60484.78;5056126;28;20626;-74
2021/11/27 03:20:10;;;;;;;10.07;4.83;;;;;;;-145.18;100.00;60484.78;5053634;28;20275;-73
2021/11/27 03:22:36;;;;;;;13.90;6.00;;;;;;;-145.18;100.00;60484.78;5052296;28;20831;-73
2021/11/27 03:25:03;;;;;;;10.27;5.30;;;;;;;-145.18;100.00;60484.78;5047423;28;20366;-73
2021/11/27 03:27:28;;;;;;;16.03;6.47;;;;;;;-145.18;100.00;60484.78;5056434;28;20907;-73
2021/11/27 03:29:54;;;;;;;10.90;5.13;;;;;;;-145.18;100.00;60484.78;5045211;28;20354;-73
2021/11/27 03:32:20;;;;;;;14.20;5.93;;;;;;;-145.18;100.00;60484.78;5054274;28;20298;-73
2021/11/27 03:34:48;;;;;;;10.90;5.03;;;;;;;-145.18;100.00;60484.78;5049254;28;20246;-73
2021/11/27 03:37:14;;;;;;;11.47;5.00;;;;;;;-145.18;100.00;60484.78;5056883;28;20286;-73
2021/11/27 03:39:40;;;;;;;11.10;5.10;;;;;;;-145.18;100.00;60484.78;5049075;28;20642;-73
2021/11/27 03:42:08;;;;;;;13.40;5.50;;;;;;;-145.18;100.00;60484.78;5052018;28;20581;-73
2021/11/27 03:44:34;;;;;;;10.90;5.30;;;;;;;-145.18;100.00;60484.78;5054268;28;20886;-73
2021/11/27 03:47:00;;;;;;;14.33;5.10;;;;;;;-145.18;100.00;60484.78;5056484;28;20365;-73
2021/11/27 03:49:27;;;;;;;12.17;5.67;;;;;;;-145.18;100.00;60484.78;5054387;28;20601;-73
2021/11/27 03:51:54;;;;;;;14.00;5.70;;;;;;;-145.18;100.00;60484.78;5052764;28;20028;-73
2021/11/27 03:54:20;;;;;;;13.13;5.60;;;;;;;-145.18;100.00;60484.78;5052982;28;20573;-73
2021/11/27 03:56:46;;;;;;;11.37;5.07;;;;;;;-145.18;100.00;60484.78;5053733;28;20446;-73
2021/11/27 03:59:12;;;;;;;12.57;4.90;;;;;;;-145.18;100.00;60484.78;5051323;28;20268;-73
2021/11/27 04:01:38;;;;;;;9.67;4.37;;;;;;;-145.18;100.00;60484.78;5054815;28;20218;-73
2021/11/27 04:04:04;;;;;;;10.50;4.77;;;;;;;-145.18;100.00;60484.78;5055611;28;20372;-73
2021/11/27 04:06:32;;;;;;;10.43;4.80;;;;;;;-145.18;100.00;60484.78;5052545;28;20028;-72
2021/11/27 04:09:00;;;;;;;12.30;4.90;;;;;;;-145.18;100.00;60484.78;5047301;28;20366;-73
2021/11/27 04:11:26;;;;;;;9.97;4.23;;;;;;;-145.18;100.00;60484.78;5053892;28;20270;-73
2021/11/27 04:13:52;;;;;;;10.63;5.00;;;;;;;-145.18;100.00;60484.78;5057129;28;20415;-73
2021/11/27 04:16:18;;;;;;;9.83;4.57;;;;;;;-145.18;100.00;60484.78;5055787;28;20357;-73
2021/11/27 04:18:43;;;;;;;9.87;4.80;;;;;;;-145.18;100.00;60484.78;5055224;28;20944;-72
2021/11/27 04:21:11;;;;;;;10.90;5.10;;;;;;;-145.18;100.00;60484.78;5053820;28;20091;-72
2021/11/27 04:23:36;;;;;;;9.20;4.50;;;;;;;-145.18;100.00;60484.78;5047756;28;20135;-73
2021/11/27 04:26:02;;;;;;;11.97;5.20;;;;;;;-145.18;100.00;60484.78;5051919;28;20342;-72
2021/11/27 04:28:27;;;;;;;11.13;5.10;;;;;;;-145.18;100.00;60484.78;5055394;28;20024;-72
2021/11/27 04:30:53;;;;;;;11.20;4.47;;;;;;;-145.18;100.00;60484.78;5049294;28;20052;-72
2021/11/27 04:33:18;;;;;;;15.57;5.87;;;;;;;-145.18;100.00;60484.78;5054056;28;20024;-73
2021/11/27 04:35:44;;;;;;;12.73;5.83;;;;;;;-145.18;100.00;60484.78;5053173;28;20508;-72
2021/11/27 04:38:09;;;;;;;9.93;4.90;;;;;;;-145.18;100.00;60484.78;5048027;28;20035;-73
2021/11/27 04:40:35;;;;;;;11.53;5.43;;;;;;;-145.18;100.00;60484.78;5051932;28;20191;-73
2021/11/27 04:43:02;;;;;;;10.60;4.73;;;;;;;-145.18;100.00;60484.78;5046350;28;20071;-73
2021/11/27 04:45:28;;;;;;;12.53;5.73;;;;;;;-145.18;100.00;60484.78;5053159;28;20285;-72
2021/11/27 04:47:56;;;;;;;11.93;5.20;;;;;;;-145.18;100.00;60484.78;5047053;28;20267;-73
2021/11/27 04:50:22;;;;;;;13.10;5.87;;;;;;;-145.18;100.00;60484.78;5053711;28;20346;-72
2021/11/27 04:52:48;;;;;;;12.10;5.70;;;;;;;-145.18;100.00;60484.78;5051603;28;20313;-72
2021/11/27 04:55:15;;;;;;;12.33;5.73;;;;;;;-145.18;100.00;60484.78;5045238;28;20301;-73
2021/11/27 04:57:41;;;;;;;11.00;5.73;;;;;;;-145.18;100.00;60484.78;5048478;28;20049;-73
2021/11/27 05:00:10;;;;;;;13.27;5.53;;;;;;;-145.18;100.00;60484.78;5052734;28;20653;-73
2021/11/27 05:02:36;;;;;;;12.50;6.23;;;;;;;-145.18;100.00;60484.78;5049583;28;20493;-73
2021/11/27 05:05:01;;;;;;;12.00;5.83;;;;;;;-145.18;100.00;60484.78;5051234;28;20311;-73
2021/11/27 05:07:26;;;;;;;13.87;6.57;;;;;;;-145.18;100.00;60484.78;5055038;28;20265;-73
2021/11/27 05:09:52;;;;;;;13.30;5.50;;;;;;;-145.18;100.00;60484.78;5050708;28;20028;-73
2021/11/27 05:12:17;;;;;;;12.27;6.10;;;;;;;-145.18;100.00;60484.78;5051586;28;20188;-73
2021/11/27 05:14:43;;;;;;;13.97;6.57;;;;;;;-145.18;100.00;60484.78;5049155;28;20053;-73
2021/11/27 05:17:08;;;;;;;12.23;5.33;;;;;;;-145.18;100.00;60484.78;5051413;28;20056;-73
2021/11/27 05:19:35;;;;;;;16.53;6.53;;;;;;;-145.18;100.00;60484.78;5050975;28;20027;-73
2021/11/27 05:22:01;;;;;;;13.13;5.40;;;;;;;-145.18;100.00;60484.78;5054844;28;20407;-73
2021/11/27 05:24:26;;;;;;;12.77;5.67;;;;;;;-145.18;100.00;60484.78;5046639;28;20281;-73
2021/11/27 05:26:52;;;;;;;13.77;5.77;;;;;;;-145.18;100.00;60484.78;5054900;28;20362;-73
2021/11/27 05:29:17;;;;;;;10.23;5.20;;;;;;;-145.18;100.00;60484.78;5053193;28;20422;-73
2021/11/27 05:31:45;;;;;;;10.37;5.20;;;;;;;-145.18;100.00;60484.78;5049187;28;20032;-73
2021/11/27 05:34:31;;;;;;;14.07;5.70;;;;;;;-145.18;100.00;60484.78;5048732;28;20103;-72
2021/11/27 05:36:56;;;;;;;12.47;4.83;;;;;;;-145.18;100.00;60484.78;5049924;28;20645;-73
2021/11/27 05:39:22;;;;;;;10.97;4.93;;;;;;;-145.18;100.00;60484.78;5048909;28;20427;-72
2021/11/27 05:41:47;;;;;;;12.27;5.60;;;;;;;-145.18;100.00;60484.78;5051998;28;20577;-73
2021/11/27 05:44:13;;;;;;;12.27;5.67;;;;;;;-145.18;100.00;60484.78;5054771;28;20093;-72
2021/11/27 05:46:38;;;;;;;10.10;5.13;;;;;;;-145.18;100.00;60484.78;5054339;28;20020;-73
2021/11/27 05:49:04;;;;;;;10.03;4.43;;;;;;;-145.18;100.00;60484.78;5053410;28;20032;-72
2021/11/27 05:51:29;;;;;;;11.47;4.50;;;;;;;-145.18;100.00;60484.78;5052326;28;20059;-72
2021/11/27 05:53:54;;;;;;;12.27;4.80;;;;;;;-145.18;100.00;60484.78;5051437;28;20033;-72
2021/11/27 05:56:20;;;;;;;12.13;4.37;;;;;;;-145.18;100.00;60484.78;5054409;28;20029;-73
2021/11/27 05:58:45;;;;;;;9.67;4.70;;;;;;;-145.18;100.00;60484.78;5057195;28;20032;-72
2021/11/27 06:01:11;;;;;;;9.60;4.67;;;;;;;-145.18;100.00;60484.78;5056308;28;20193;-72
2021/11/27 06:03:36;;;;;;;9.67;4.20;;;;;;;-145.18;100.00;60484.78;5056979;28;20028;-72
2021/11/27 06:06:02;;;;;;;10.20;5.10;;;;;;;-145.18;100.00;60484.78;5051746;28;20037;-72
2021/11/27 06:08:28;;;;;;;11.10;5.03;;;;;;;-145.18;100.00;60484.78;5054661;28;20020;-72
2021/11/27 06:10:53;;;;;;;10.23;4.87;;;;;;;-145.18;100.00;60484.78;5055544;28;20154;-72
2021/11/27 06:13:19;;;;;;;9.37;4.73;;;;;;;-145.18;100.00;60484.78;5052471;28;20031;-72
2021/11/27 06:15:45;;;;;;;10.77;5.23;;;;;;;-145.18;100.00;60484.78;5052082;28;20556;-72
2021/11/27 06:18:10;;;;;;;9.80;4.50;;;;;;;-145.18;100.00;60484.78;5047877;28;20075;-72
2021/11/27 06:20:36;;;;;;;11.00;5.73;;;;;;;-145.18;100.00;60484.78;5053211;28;20266;-72
2021/11/27 06:23:02;;;;;;;11.37;5.40;;;;;;;-145.18;100.00;60484.78;5052789;28;20059;-73
2021/11/27 06:25:28;;;;;;;9.33;4.63;;;;;;;-145.18;100.00;60484.78;5055628;28;20445;-72
2021/11/27 06:27:54;;;;;;;10.50;4.70;;;;;;;-145.18;100.00;60484.78;5051385;28;20382;-72
2021/11/27 06:30:20;;;;;;;9.73;4.33;;;;;;;-145.18;100.00;60484.78;5051126;28;20505;-72
2021/11/27 06:32:46;;;;;;;8.60;4.00;;;;;;;-145.18;100.00;60484.78;5050949;28;20332;-72
2021/11/27 06:35:12;;;;;;;9.43;4.47;;;;;;;-145.18;100.00;60484.78;5054044;28;20033;-72
2021/11/27 06:37:37;;;;;;;12.80;4.87;;;;;;;-145.18;100.00;60484.78;5050025;28;20024;-72
2021/11/27 06:40:04;;;;;;;10.93;5.10;;;;;;;-145.18;100.00;60484.78;5052128;28;20782;-72
2021/11/27 06:42:29;;;;;;;11.40;4.80;;;;;;;-145.18;100.00;60484.78;5055811;28;20075;-72
2021/11/27 06:44:55;;;;;;;10.27;5.10;;;;;;;-145.18;100.00;60484.78;5048224;28;20615;-72
2021/11/27 06:47:23;;;;;;;10.60;4.50;;;;;;;-145.18;100.00;60484.78;5050574;28;20046;-72
2021/11/27 06:49:51;;;;;;;11.83;5.00;;;;;;;-145.18;100.00;60484.78;5053032;28;20024;-72
2021/11/27 06:52:17;;;;;;;9.27;4.97;;;;;;;-145.18;100.00;60484.78;5056992;28;20754;-72
2021/11/27 06:54:43;;;;;;;11.10;5.13;;;;;;;-145.18;100.00;60484.78;5052252;28;20266;-72
2021/11/27 06:57:09;;;;;;;8.90;4.40;;;;;;;-145.18;100.00;60484.78;5055087;28;20316;-70
2021/11/27 06:59:36;;;;;;;9.10;3.93;;;;;;;-145.18;100.00;60484.78;5049079;28;20285;-70
2021/11/27 07:02:02;;;;;;;9.83;4.27;;;;;;;-145.18;100.00;60484.78;5054240;28;20336;-70
2021/11/27 07:04:27;;;;;;;9.77;4.93;;;;;;;-145.18;100.00;60484.78;5056923;28;20286;-70
2021/11/27 07:06:53;;;;;;;10.67;4.70;;;;;;;-145.18;100.00;60484.78;5054842;28;20497;-70
2021/11/27 07:09:19;;;;;;;10.50;5.03;;;;;;;-145.18;100.00;60484.78;5049903;28;20349;-70
2021/11/27 07:11:44;;;;;;;9.77;4.80;;;;;;;-145.18;100.00;60484.78;5050996;28;20032;-70
2021/11/27 07:14:10;;;;;;;10.00;4.90;;;;;;;-145.18;100.00;60484.78;5051618;28;20052;-70
2021/11/27 07:16:35;;;;;;;8.87;4.40;;;;;;;-145.18;100.00;60484.78;5057753;28;20050;-70
2021/11/27 07:19:01;;;;;;;8.30;4.00;;;;;;;-145.18;100.00;60484.78;5048370;28;20040;-70
2021/11/27 07:21:26;;;;;;;10.10;5.20;;;;;;;-145.18;100.00;60484.78;5051554;28;20146;-70
2021/11/27 07:23:52;;;;;;;9.23;4.73;;;;;;;-145.18;100.00;60484.78;5051404;28;20166;-70
2021/11/27 07:26:18;;;;;;;8.47;3.97;;;;;;;-145.18;100.00;60484.78;5052368;28;20021;-70
2021/11/27 07:28:44;;;;;;;10.07;4.77;;;;;;;-145.18;100.00;60484.78;5051706;28;20062;-70
2021/11/27 07:31:11;;;;;;;10.83;4.87;;;;;;;-145.18;100.00;60484.78;5054100;28;20779;-70
2021/11/27 07:33:37;;;;;;;8.87;4.63;;;;;;;-145.18;100.00;60484.78;5048587;28;20025;-70
2021/11/27 07:36:03;;;;;;;9.67;4.47;;;;;;;-145.18;100.00;60484.78;5048792;28;20621;-70
2021/11/27 07:38:28;;;;;;;8.60;4.57;;;;;;;-145.18;100.00;60484.78;5052586;28;20204;-70
2021/11/27 07:40:54;;;;;;;8.47;3.90;;;;;;;-145.18;100.00;60484.78;5052988;28;20095;-70
2021/11/27 07:43:19;;;;;;;9.30;4.30;;;;;;;-145.18;100.00;60484.78;5055237;28;20238;-70
2021/11/27 07:45:45;;;;;;;8.13;4.07;;;;;;;-145.18;100.00;60484.78;5053131;28;20035;-70
2021/11/27 07:48:10;;;;;;;7.80;3.90;;;;;;;-145.18;100.00;60484.78;5045726;28;20024;-70
2021/11/27 07:50:35;;;;;;;8.17;4.03;;;;;;;-145.18;100.00;60484.78;5048623;28;20020;-70
2021/11/27 07:53:01;;;;;;;9.37;4.17;;;;;;;-145.18;100.00;60484.78;5053809;28;20419;-70
2021/11/27 07:55:28;;;;;;;9.40;3.17;;;;;;;-145.18;100.00;60484.78;5052471;28;20027;-69
2021/11/27 07:57:54;;;;;;;8.00;4.20;;;;;;;-145.18;100.00;60484.78;5054240;28;20181;-70
2021/11/27 08:00:20;;;;;;;9.80;4.07;;;;;;;-145.18;100.00;60484.78;5054061;28;20655;-70
2021/11/27 08:02:46;;;;;;;10.97;4.77;;;;;;;-145.18;100.00;60484.78;5042499;28;20028;-70
2021/11/27 08:05:11;;;;;;;8.47;3.80;;;;;;;-145.18;100.00;60484.78;5050087;28;20131;-69
2021/11/27 08:07:37;;;;;;;7.60;4.00;;;;;;;-145.18;100.00;60484.78;5053583;28;20025;-69
2021/11/27 08:10:08;;;;;;;7.37;3.37;;;;;;;-145.18;100.00;60484.78;5053615;28;20093;-70
2021/11/27 08:12:34;;;;;;;7.77;3.87;;;;;;;-145.18;100.00;60484.78;5045904;28;20908;-69
2021/11/27 08:14:59;;;;;;;8.40;4.07;;;;;;;-145.18;100.00;60484.78;5053524;28;20297;-70
2021/11/27 08:17:25;;;;;;;8.27;3.67;;;;;;;-145.18;100.00;60484.78;5047173;28;20375;-69
2021/11/27 08:19:51;;;;;;;7.47;3.90;;;;;;;-145.18;100.00;60484.78;5051947;28;20028;-70
2021/11/27 08:22:16;;;;;;;9.30;4.23;;;;;;;-145.18;100.00;60484.78;5054260;28;20557;-70
2021/11/27 08:24:42;;;;;;;10.57;4.17;;;;;;;-145.18;100.00;60484.78;5044250;28;20052;-70
2021/11/27 08:27:08;;;;;;;7.43;3.73;;;;;;;-145.18;100.00;60484.78;5045095;28;20575;-70
2021/11/27 08:29:33;;;;;;;8.07;4.00;;;;;;;-145.18;100.00;60484.78;5055065;28;20050;-70
2021/11/27 08:31:58;;;;;;;8.67;3.57;;;;;;;-145.18;100.00;60484.78;5046231;28;20033;-70
2021/11/27 08:34:24;;;;;;;7.57;3.93;;;;;;;-145.18;100.00;60484.78;5047779;28;20028;-70
2021/11/27 08:36:50;;;;;;;9.87;4.30;;;;;;;-145.18;100.00;60484.78;5052036;28;20129;-69
2021/11/27 08:39:15;;;;;;;8.30;4.00;;;;;;;-145.18;100.00;60484.78;5051330;28;20188;-69
2021/11/27 08:41:42;;;;;;;7.97;3.50;;;;;;;-145.18;100.00;60484.78;5049088;28;20028;-70
2021/11/27 08:44:08;;;;;;;10.60;4.37;;;;;;;-145.18;100.00;60484.78;5049379;28;20485;-69
2021/11/27 08:46:33;;;;;;;7.97;3.77;;;;;;;-145.18;100.00;60484.78;5051147;28;20612;-69
2021/11/27 08:48:59;;;;;;;6.83;3.70;;;;;;;-145.18;100.00;60484.78;5051283;28;20044;-69
2021/11/27 08:51:25;;;;;;;7.77;4.07;;;;;;;-145.18;100.00;60484.78;5045564;28;20037;-70
2021/11/27 08:53:50;;;;;;;7.80;3.63;;;;;;;-145.18;100.00;60484.78;5050494;28;20032;-69
2021/11/27 08:56:16;;;;;;;7.03;3.40;;;;;;;-145.18;100.00;60484.78;5050794;28;20036;-70
2021/11/27 08:58:42;;;;;;;8.70;4.27;;;;;;;-145.18;100.00;60484.78;5046273;28;20032;-72
2021/11/27 09:01:10;;;;;;;6.77;3.57;;;;;;;-145.18;100.00;60484.78;5053016;28;20294;-72
2021/11/27 09:03:36;;;;;;;8.43;4.10;;;;;;;-145.18;100.00;60484.78;5037302;28;20742;-72
2021/11/27 09:06:02;;;;;;;8.53;3.73;;;;;;;-145.18;100.00;60484.78;5048541;28;20309;-72
2021/11/27 09:08:28;;;;;;;9.47;4.37;;;;;;;-145.18;100.00;60484.78;5048273;28;20508;-72
2021/11/27 09:10:55;;;;;;;8.43;3.67;;;;;;;-145.18;100.00;60484.78;5051782;28;20028;-72
2021/11/27 09:13:20;;;;;;;7.80;3.53;;;;;;;-145.18;100.00;60484.78;5045428;28;20024;-72
2021/11/27 09:15:45;;;;;;;7.80;3.73;;;;;;;-145.18;100.00;60484.78;5054160;28;20670;-72
2021/11/27 09:18:11;;;;;;;8.03;3.63;;;;;;;-145.18;100.00;60484.78;5044736;28;20548;-72
2021/11/27 09:20:37;;;;;;;6.80;3.53;;;;;;;-145.18;100.00;60484.78;5053554;28;20477;-72
2021/11/27 09:23:04;;;;;;;8.23;3.90;;;;;;;-145.18;100.00;60484.78;5046231;28;20028;-72
2021/11/27 09:25:29;;;;;;;8.80;3.57;;;;;;;-145.18;100.00;60484.78;5053316;28;20289;-72
2021/11/27 09:27:59;;;;;;;7.60;3.73;;;;;;;-145.18;100.00;60484.78;5046020;28;20267;-71
2021/11/27 09:30:27;;;;;;;7.83;3.60;;;;;;;-145.18;100.00;60484.78;5044422;28;20028;-71
2021/11/27 09:32:52;;;;;;;8.57;4.00;;;;;;;-145.18;100.00;60484.78;5041813;28;20275;-72
2021/11/27 09:35:17;;;;;;;8.77;4.27;;;;;;;-145.18;100.00;60484.78;5047731;28;20267;-71
2021/11/27 09:37:43;;;;;;;8.03;4.30;;;;;;;-145.18;100.00;60484.78;5048870;28;20076;-72
2021/11/27 09:40:10;;;;;;;7.40;3.67;;;;;;;-145.18;100.00;60484.78;5048835;28;20036;-72
2021/11/27 09:42:37;;;;;;;7.07;3.30;;;;;;;-145.18;100.00;60484.78;5050973;28;20029;-71
2021/11/27 09:45:05;;;;;;;8.40;4.20;;;;;;;-145.18;100.00;60484.78;5052700;28;20779;-71
2021/11/27 09:47:32;;;;;;;6.90;3.57;;;;;;;-145.18;100.00;60484.78;5049496;28;20271;-71
2021/11/27 09:50:00;;;;;;;8.57;3.73;;;;;;;-145.18;100.00;60484.78;5048693;28;20275;-71
2021/11/27 09:52:25;;;;;;;11.33;3.67;;;;;;;-145.18;100.00;60484.78;5050663;28;20274;-72
2021/11/27 09:54:51;;;;;;;12.23;4.60;;;;;;;-145.18;100.00;60484.78;5055148;28;20048;-72
2021/11/27 09:57:16;;;;;;;10.53;3.93;;;;;;;-145.18;100.00;60484.78;5043917;28;20593;-72
2021/11/27 09:59:45;;;;;;;8.33;4.10;;;;;;;-145.18;100.00;60484.78;5050913;28;20036;-72
2021/11/27 10:02:13;;;;;;;7.33;3.27;;;;;;;-145.18;100.00;60484.78;5051639;28;20035;-71
2021/11/27 10:04:43;;;;;;;8.17;3.77;;;;;;;-145.18;100.00;60484.78;5050775;28;20048;-72
2021/11/27 10:07:12;;;;;;;8.63;4.17;;;;;;;-145.18;100.00;60484.78;5047961;28;20302;-71
2021/11/27 10:09:38;;;;;;;8.90;4.27;;;;;;;-145.18;100.00;60484.78;5049765;28;20282;-71
2021/11/27 10:12:07;;;;;;;7.63;3.60;;;;;;;-145.18;100.00;60484.78;5046924;28;20428;-72
2021/11/27 10:14:35;;;;;;;6.93;3.43;;;;;;;-145.18;100.00;60484.78;5049374;28;20103;-71
2021/11/27 10:17:05;;;;;;;7.53;3.53;;;;;;;-145.18;100.00;60484.78;5051067;28;20238;-71
2021/11/27 10:19:39;;;;;;;7.27;3.60;;;;;;;-145.18;100.00;60484.78;5046953;28;20028;-72
2021/11/27 10:22:05;;;;;;;7.10;3.60;;;;;;;-145.18;100.00;60484.78;5050433;28;20039;-71
2021/11/27 10:24:32;;;;;;;6.53;3.43;;;;;;;-145.18;100.00;60484.78;5047086;28;20020;-71
2021/11/27 10:27:00;;;;;;;7.90;3.90;;;;;;;-145.18;100.00;60484.78;5052319;28;21446;-72
2021/11/27 10:29:34;;;;;;;8.50;4.27;;;;;;;-145.18;100.00;60484.78;5056698;28;20091;-71
2021/11/27 10:32:10;;;;;;;8.03;4.43;;;;;;;-145.18;100.00;60484.78;5053173;28;20082;-71
2021/11/27 10:34:37;;;;;;;7.07;3.60;;;;;;;-145.18;100.00;60484.78;5047476;28;20616;-71
2021/11/27 10:37:23;;;;;;;7.07;3.43;;;;;;;-145.18;100.00;60484.78;5052338;28;20225;-72
2021/11/27 10:40:17;;;;;;;6.50;3.67;;;;;;;-145.18;100.00;60484.78;5053215;28;20299;-71
2021/11/27 10:42:50;;;;;;;7.13;3.43;;;;;;;-145.18;100.00;60484.78;4952748;28;20059;-72
2021/11/27 10:45:15;;;;;;;;;;;;;;;-145.18;100.00;60484.78;4958074;28;20113;-71
2021/11/27 10:47:42;;;;;;;6.97;3.70;;;;;;;-145.18;100.00;60484.78;4958984;28;20009;-71
2021/11/27 10:50:10;;;;;;;7.23;3.77;;;;;;;-145.18;100.00;60484.78;4958370;28;20030;-72
2021/11/27 10:52:39;;;;;;;8.40;3.53;;;;;;;-145.18;100.00;60484.78;4957396;28;20046;-71
2021/11/27 10:55:26;;;;;;;7.57;3.43;;;;;;;-145.18;100.00;60484.78;4967009;28;20434;-72
2021/11/27 10:57:55;;;;;;;9.50;4.03;;;;;;;-145.18;100.00;60484.78;4957366;28;20340;-71
2021/11/27 11:00:40;;;;;;;7.17;3.80;;;;;;;-145.18;100.00;60484.78;4955416;28;20058;-71
2021/11/27 11:03:23;;;;;;;6.03;2.87;;;;;;;-145.18;100.00;60484.78;4957600;28;20045;-71